sensor_id;sensor_type;location;lat;lon;timestamp;P1;durP1;ratioP1;P2;durP2;ratioP2
51686;SDS011;37774;52.192;4.584;2022-09-09T00:00:49;6.05;;;2.92;;
51686;SDS011;37774;52.192;4.584;2022-09-09T00:03:22;10.00;;;3.63;;
51686;SDS011;37774;52.192;4.584;2022-09-09T00:05:55;12.20;;;3.30;;
51686;SDS011;37774;52.192;4.584;2022-09-09T00:08:30;10.02;;;4.30;;
51686;SDS011;37774;52.192;4.584;2022-09-09T00:11:08;7.80;;;2.97;;
51686;SDS011;37774;52.192;4.584;2022-09-09T00:13:40;7.45;;;3.83;;
51686;SDS011;37774;52.192;4.584;2022-09-09T00:16:11;6.20;;;3.25;;
51686;SDS011;37774;52.192;4.584;2022-09-09T00:18:47;13.18;;;3.45;;
51686;SDS011;37774;52.192;4.584;2022-09-09T00:21:25;10.07;;;4.13;;
51686;SDS011;37774;52.192;4.584;2022-09-09T00:23:58;8.27;;;4.07;;
51686;SDS011;37774;52.192;4.584;2022-09-09T00:26:30;10.02;;;4.60;;
51686;SDS011;37774;52.192;4.584;2022-09-09T00:29:05;12.65;;;4.93;;
51686;SDS011;37774;52.192;4.584;2022-09-09T00:34:09;7.80;;;4.45;;
51686;SDS011;37774;52.192;4.584;2022-09-09T00:36:41;8.52;;;4.85;;
51686;SDS011;37774;52.192;4.584;2022-09-09T00:39:12;13.30;;;5.78;;
51686;SDS011;37774;52.192;4.584;2022-09-09T00:41:48;12.85;;;5.10;;
51686;SDS011;37774;52.192;4.584;2022-09-09T00:44:25;20.00;;;6.30;;
51686;SDS011;37774;52.192;4.584;2022-09-09T00:47:03;16.27;;;5.97;;
51686;SDS011;37774;52.192;4.584;2022-09-09T00:49:40;14.88;;;6.45;;
51686;SDS011;37774;52.192;4.584;2022-09-09T00:52:20;8.20;;;5.32;;
51686;SDS011;37774;52.192;4.584;2022-09-09T00:54:56;14.60;;;5.70;;
51686;SDS011;37774;52.192;4.584;2022-09-09T00:57:30;11.13;;;6.40;;
51686;SDS011;37774;52.192;4.584;2022-09-09T01:00:00;13.68;;;6.72;;
51686;SDS011;37774;52.192;4.584;2022-09-09T01:02:59;19.13;;;6.32;;
51686;SDS011;37774;52.192;4.584;2022-09-09T01:05:39;11.82;;;6.32;;
51686;SDS011;37774;52.192;4.584;2022-09-09T01:08:16;15.52;;;7.13;;
51686;SDS011;37774;52.192;4.584;2022-09-09T01:10:58;16.85;;;6.70;;
51686;SDS011;37774;52.192;4.584;2022-09-09T01:13:28;15.98;;;7.25;;
51686;SDS011;37774;52.192;4.584;2022-09-09T01:15:57;19.15;;;7.55;;
51686;SDS011;37774;52.192;4.584;2022-09-09T01:18:26;13.38;;;6.50;;
51686;SDS011;37774;52.192;4.584;2022-09-09T01:20:58;16.92;;;8.32;;
51686;SDS011;37774;52.192;4.584;2022-09-09T01:23:43;30.25;;;8.93;;
51686;SDS011;37774;52.192;4.584;2022-09-09T01:26:33;20.20;;;8.52;;
51686;SDS011;37774;52.192;4.584;2022-09-09T01:29:01;18.75;;;9.43;;
51686;SDS011;37774;52.192;4.584;2022-09-09T01:31:28;18.58;;;9.70;;
51686;SDS011;37774;52.192;4.584;2022-09-09T01:33:58;22.15;;;10.68;;
51686;SDS011;37774;52.192;4.584;2022-09-09T01:36:27;24.02;;;10.00;;
51686;SDS011;37774;52.192;4.584;2022-09-09T01:39:01;27.73;;;10.93;;
51686;SDS011;37774;52.192;4.584;2022-09-09T01:41:28;25.38;;;10.95;;
51686;SDS011;37774;52.192;4.584;2022-09-09T01:43:56;29.33;;;11.32;;
51686;SDS011;37774;52.192;4.584;2022-09-09T01:46:23;20.27;;;10.55;;
51686;SDS011;37774;52.192;4.584;2022-09-09T01:48:51;25.33;;;10.93;;
51686;SDS011;37774;52.192;4.584;2022-09-09T01:51:19;16.38;;;9.02;;
51686;SDS011;37774;52.192;4.584;2022-09-09T01:53:46;23.83;;;10.10;;
51686;SDS011;37774;52.192;4.584;2022-09-09T01:56:22;23.30;;;9.90;;
51686;SDS011;37774;52.192;4.584;2022-09-09T01:59:05;20.98;;;9.95;;
51686;SDS011;37774;52.192;4.584;2022-09-09T02:01:45;25.88;;;9.13;;
51686;SDS011;37774;52.192;4.584;2022-09-09T02:04:24;16.25;;;10.05;;
51686;SDS011;37774;52.192;4.584;2022-09-09T02:07:02;22.67;;;10.25;;
51686;SDS011;37774;52.192;4.584;2022-09-09T02:09:32;35.53;;;9.65;;
51686;SDS011;37774;52.192;4.584;2022-09-09T02:12:05;18.77;;;10.40;;
51686;SDS011;37774;52.192;4.584;2022-09-09T02:14:40;17.20;;;9.35;;
51686;SDS011;37774;52.192;4.584;2022-09-09T02:17:13;18.33;;;9.90;;
51686;SDS011;37774;52.192;4.584;2022-09-09T02:19:45;24.52;;;9.15;;
51686;SDS011;37774;52.192;4.584;2022-09-09T02:22:15;26.10;;;10.10;;
51686;SDS011;37774;52.192;4.584;2022-09-09T02:24:45;15.95;;;8.57;;
51686;SDS011;37774;52.192;4.584;2022-09-09T02:27:13;20.98;;;9.70;;
51686;SDS011;37774;52.192;4.584;2022-09-09T02:29:43;16.95;;;8.73;;
51686;SDS011;37774;52.192;4.584;2022-09-09T02:32:13;24.40;;;9.85;;
51686;SDS011;37774;52.192;4.584;2022-09-09T02:34:43;17.52;;;8.18;;
51686;SDS011;37774;52.192;4.584;2022-09-09T02:37:11;24.80;;;9.73;;
51686;SDS011;37774;52.192;4.584;2022-09-09T02:39:39;15.63;;;8.52;;
51686;SDS011;37774;52.192;4.584;2022-09-09T02:42:06;20.77;;;8.82;;
51686;SDS011;37774;52.192;4.584;2022-09-09T02:44:33;22.52;;;9.15;;
51686;SDS011;37774;52.192;4.584;2022-09-09T02:47:10;16.75;;;8.07;;
51686;SDS011;37774;52.192;4.584;2022-09-09T02:49:48;24.52;;;8.35;;
51686;SDS011;37774;52.192;4.584;2022-09-09T02:52:29;15.45;;;8.02;;
51686;SDS011;37774;52.192;4.584;2022-09-09T02:55:06;19.60;;;7.50;;
51686;SDS011;37774;52.192;4.584;2022-09-09T02:57:38;17.42;;;7.35;;
51686;SDS011;37774;52.192;4.584;2022-09-09T03:00:08;19.35;;;7.18;;
51686;SDS011;37774;52.192;4.584;2022-09-09T03:02:37;11.10;;;6.97;;
51686;SDS011;37774;52.192;4.584;2022-09-09T03:05:05;17.73;;;6.30;;
51686;SDS011;37774;52.192;4.584;2022-09-09T03:07:32;11.65;;;6.38;;
51686;SDS011;37774;52.192;4.584;2022-09-09T03:10:00;21.42;;;7.65;;
51686;SDS011;37774;52.192;4.584;2022-09-09T03:12:26;13.55;;;6.00;;
51686;SDS011;37774;52.192;4.584;2022-09-09T03:14:53;31.40;;;7.93;;
51686;SDS011;37774;52.192;4.584;2022-09-09T03:17:20;14.55;;;7.57;;
51686;SDS011;37774;52.192;4.584;2022-09-09T03:19:48;21.80;;;7.22;;
51686;SDS011;37774;52.192;4.584;2022-09-09T03:22:17;13.43;;;6.47;;
51686;SDS011;37774;52.192;4.584;2022-09-09T03:24:44;13.73;;;7.38;;
51686;SDS011;37774;52.192;4.584;2022-09-09T03:27:11;19.40;;;7.78;;
51686;SDS011;37774;52.192;4.584;2022-09-09T03:29:39;16.38;;;7.18;;
51686;SDS011;37774;52.192;4.584;2022-09-09T03:32:06;19.30;;;7.45;;
51686;SDS011;37774;52.192;4.584;2022-09-09T03:34:35;17.45;;;7.47;;
51686;SDS011;37774;52.192;4.584;2022-09-09T03:37:03;20.88;;;7.90;;
51686;SDS011;37774;52.192;4.584;2022-09-09T03:39:30;14.35;;;7.93;;
51686;SDS011;37774;52.192;4.584;2022-09-09T03:41:57;13.60;;;7.22;;
51686;SDS011;37774;52.192;4.584;2022-09-09T03:44:23;13.07;;;7.50;;
51686;SDS011;37774;52.192;4.584;2022-09-09T03:46:50;15.93;;;7.07;;
51686;SDS011;37774;52.192;4.584;2022-09-09T03:49:17;15.65;;;7.28;;
51686;SDS011;37774;52.192;4.584;2022-09-09T03:51:45;15.60;;;7.40;;
51686;SDS011;37774;52.192;4.584;2022-09-09T03:54:13;17.58;;;6.38;;
51686;SDS011;37774;52.192;4.584;2022-09-09T03:56:40;14.23;;;7.03;;
51686;SDS011;37774;52.192;4.584;2022-09-09T03:59:06;19.88;;;6.80;;
51686;SDS011;37774;52.192;4.584;2022-09-09T04:01:34;19.80;;;7.63;;
51686;SDS011;37774;52.192;4.584;2022-09-09T04:04:01;14.90;;;8.25;;
51686;SDS011;37774;52.192;4.584;2022-09-09T04:06:28;16.63;;;6.68;;
51686;SDS011;37774;52.192;4.584;2022-09-09T04:08:55;13.10;;;7.18;;
51686;SDS011;37774;52.192;4.584;2022-09-09T04:11:23;17.02;;;7.45;;
51686;SDS011;37774;52.192;4.584;2022-09-09T04:13:50;17.02;;;7.93;;
51686;SDS011;37774;52.192;4.584;2022-09-09T04:16:17;20.00;;;7.30;;
51686;SDS011;37774;52.192;4.584;2022-09-09T04:18:43;15.75;;;7.63;;
51686;SDS011;37774;52.192;4.584;2022-09-09T04:21:10;16.83;;;8.07;;
51686;SDS011;37774;52.192;4.584;2022-09-09T04:23:38;19.60;;;7.70;;
51686;SDS011;37774;52.192;4.584;2022-09-09T04:26:05;16.38;;;6.75;;
51686;SDS011;37774;52.192;4.584;2022-09-09T04:28:34;21.30;;;6.80;;
51686;SDS011;37774;52.192;4.584;2022-09-09T04:31:05;13.65;;;8.10;;
51686;SDS011;37774;52.192;4.584;2022-09-09T04:33:34;27.42;;;8.57;;
51686;SDS011;37774;52.192;4.584;2022-09-09T04:36:02;16.42;;;6.80;;
51686;SDS011;37774;52.192;4.584;2022-09-09T04:38:29;14.65;;;6.78;;
51686;SDS011;37774;52.192;4.584;2022-09-09T04:40:55;14.80;;;8.13;;
51686;SDS011;37774;52.192;4.584;2022-09-09T04:43:22;28.02;;;7.82;;
51686;SDS011;37774;52.192;4.584;2022-09-09T04:45:51;19.75;;;6.28;;
51686;SDS011;37774;52.192;4.584;2022-09-09T04:48:18;25.08;;;6.93;;
51686;SDS011;37774;52.192;4.584;2022-09-09T04:50:53;25.10;;;6.72;;
51686;SDS011;37774;52.192;4.584;2022-09-09T04:53:20;21.38;;;7.22;;
51686;SDS011;37774;52.192;4.584;2022-09-09T04:55:47;12.15;;;5.55;;
51686;SDS011;37774;52.192;4.584;2022-09-09T04:58:14;14.77;;;6.45;;
51686;SDS011;37774;52.192;4.584;2022-09-09T05:00:41;17.17;;;5.90;;
51686;SDS011;37774;52.192;4.584;2022-09-09T05:03:09;14.13;;;5.85;;
51686;SDS011;37774;52.192;4.584;2022-09-09T05:05:37;14.93;;;5.68;;
51686;SDS011;37774;52.192;4.584;2022-09-09T05:08:05;17.05;;;5.93;;
51686;SDS011;37774;52.192;4.584;2022-09-09T05:10:33;14.35;;;5.88;;
51686;SDS011;37774;52.192;4.584;2022-09-09T05:13:02;11.63;;;4.45;;
51686;SDS011;37774;52.192;4.584;2022-09-09T05:15:29;16.00;;;5.68;;
51686;SDS011;37774;52.192;4.584;2022-09-09T05:17:56;11.07;;;4.88;;
51686;SDS011;37774;52.192;4.584;2022-09-09T05:20:25;10.10;;;5.05;;
51686;SDS011;37774;52.192;4.584;2022-09-09T05:22:52;8.32;;;4.82;;
51686;SDS011;37774;52.192;4.584;2022-09-09T05:25:19;16.05;;;4.85;;
51686;SDS011;37774;52.192;4.584;2022-09-09T05:27:47;12.60;;;4.78;;
51686;SDS011;37774;52.192;4.584;2022-09-09T05:30:14;20.38;;;4.57;;
51686;SDS011;37774;52.192;4.584;2022-09-09T05:32:41;21.00;;;4.53;;
51686;SDS011;37774;52.192;4.584;2022-09-09T05:35:08;24.02;;;4.55;;
51686;SDS011;37774;52.192;4.584;2022-09-09T05:37:36;15.77;;;4.00;;
51686;SDS011;37774;52.192;4.584;2022-09-09T05:40:03;6.60;;;2.90;;
51686;SDS011;37774;52.192;4.584;2022-09-09T05:42:30;10.60;;;4.35;;
51686;SDS011;37774;52.192;4.584;2022-09-09T05:44:58;10.07;;;3.88;;
51686;SDS011;37774;52.192;4.584;2022-09-09T05:47:24;7.75;;;3.92;;
51686;SDS011;37774;52.192;4.584;2022-09-09T05:49:53;8.80;;;3.55;;
51686;SDS011;37774;52.192;4.584;2022-09-09T05:52:20;16.30;;;3.65;;
51686;SDS011;37774;52.192;4.584;2022-09-09T05:54:49;8.30;;;4.05;;
51686;SDS011;37774;52.192;4.584;2022-09-09T05:57:15;13.05;;;4.07;;
51686;SDS011;37774;52.192;4.584;2022-09-09T05:59:44;17.95;;;4.30;;
51686;SDS011;37774;52.192;4.584;2022-09-09T06:02:11;12.18;;;3.85;;
51686;SDS011;37774;52.192;4.584;2022-09-09T06:04:38;9.18;;;3.17;;
51686;SDS011;37774;52.192;4.584;2022-09-09T06:07:05;11.85;;;3.20;;
51686;SDS011;37774;52.192;4.584;2022-09-09T06:09:32;12.07;;;3.13;;
51686;SDS011;37774;52.192;4.584;2022-09-09T06:12:00;12.38;;;3.65;;
51686;SDS011;37774;52.192;4.584;2022-09-09T06:14:27;8.80;;;2.88;;
51686;SDS011;37774;52.192;4.584;2022-09-09T06:16:54;16.02;;;3.92;;
51686;SDS011;37774;52.192;4.584;2022-09-09T06:19:21;13.82;;;3.47;;
51686;SDS011;37774;52.192;4.584;2022-09-09T06:21:49;13.35;;;3.53;;
51686;SDS011;37774;52.192;4.584;2022-09-09T06:24:16;8.73;;;3.25;;
51686;SDS011;37774;52.192;4.584;2022-09-09T06:26:44;3.95;;;2.40;;
51686;SDS011;37774;52.192;4.584;2022-09-09T06:29:13;8.70;;;3.00;;
51686;SDS011;37774;52.192;4.584;2022-09-09T06:31:39;7.03;;;3.22;;
51686;SDS011;37774;52.192;4.584;2022-09-09T06:34:07;11.48;;;3.55;;
51686;SDS011;37774;52.192;4.584;2022-09-09T06:36:35;16.38;;;3.47;;
51686;SDS011;37774;52.192;4.584;2022-09-09T06:39:03;7.35;;;2.70;;
51686;SDS011;37774;52.192;4.584;2022-09-09T06:41:31;10.50;;;2.65;;
51686;SDS011;37774;52.192;4.584;2022-09-09T06:43:59;13.02;;;3.10;;
51686;SDS011;37774;52.192;4.584;2022-09-09T06:46:28;11.93;;;3.15;;
51686;SDS011;37774;52.192;4.584;2022-09-09T06:48:57;14.30;;;2.70;;
51686;SDS011;37774;52.192;4.584;2022-09-09T06:51:25;8.07;;;2.58;;
51686;SDS011;37774;52.192;4.584;2022-09-09T06:53:53;15.38;;;4.18;;
51686;SDS011;37774;52.192;4.584;2022-09-09T06:56:22;19.20;;;3.20;;
51686;SDS011;37774;52.192;4.584;2022-09-09T06:58:51;11.23;;;3.10;;
51686;SDS011;37774;52.192;4.584;2022-09-09T07:01:20;7.70;;;2.65;;
51686;SDS011;37774;52.192;4.584;2022-09-09T07:03:50;12.27;;;2.80;;
51686;SDS011;37774;52.192;4.584;2022-09-09T07:06:19;9.85;;;2.85;;
51686;SDS011;37774;52.192;4.584;2022-09-09T07:08:50;10.75;;;3.53;;
51686;SDS011;37774;52.192;4.584;2022-09-09T07:11:18;8.18;;;3.15;;
51686;SDS011;37774;52.192;4.584;2022-09-09T07:13:45;11.38;;;3.55;;
51686;SDS011;37774;52.192;4.584;2022-09-09T07:16:13;8.52;;;3.13;;
51686;SDS011;37774;52.192;4.584;2022-09-09T07:18:41;10.27;;;3.38;;
51686;SDS011;37774;52.192;4.584;2022-09-09T07:21:10;17.20;;;3.45;;
51686;SDS011;37774;52.192;4.584;2022-09-09T07:23:38;27.27;;;4.13;;
51686;SDS011;37774;52.192;4.584;2022-09-09T07:26:07;7.60;;;3.78;;
51686;SDS011;37774;52.192;4.584;2022-09-09T07:28:35;13.77;;;3.90;;
51686;SDS011;37774;52.192;4.584;2022-09-09T07:31:03;9.43;;;4.40;;
51686;SDS011;37774;52.192;4.584;2022-09-09T07:33:32;8.15;;;3.75;;
51686;SDS011;37774;52.192;4.584;2022-09-09T07:36:04;18.85;;;4.13;;
51686;SDS011;37774;52.192;4.584;2022-09-09T07:38:38;9.07;;;4.03;;
51686;SDS011;37774;52.192;4.584;2022-09-09T07:41:06;12.02;;;3.53;;
51686;SDS011;37774;52.192;4.584;2022-09-09T07:43:37;20.90;;;4.85;;
51686;SDS011;37774;52.192;4.584;2022-09-09T07:46:04;14.73;;;3.92;;
51686;SDS011;37774;52.192;4.584;2022-09-09T07:48:31;15.50;;;4.13;;
51686;SDS011;37774;52.192;4.584;2022-09-09T07:51:08;10.00;;;3.75;;
51686;SDS011;37774;52.192;4.584;2022-09-09T07:53:38;10.82;;;3.97;;
51686;SDS011;37774;52.192;4.584;2022-09-09T07:56:11;13.43;;;4.22;;
51686;SDS011;37774;52.192;4.584;2022-09-09T07:58:42;15.80;;;4.65;;
51686;SDS011;37774;52.192;4.584;2022-09-09T08:01:12;11.20;;;5.15;;
51686;SDS011;37774;52.192;4.584;2022-09-09T08:03:41;15.60;;;4.18;;
51686;SDS011;37774;52.192;4.584;2022-09-09T08:06:09;16.50;;;4.45;;
51686;SDS011;37774;52.192;4.584;2022-09-09T08:08:39;11.70;;;5.18;;
51686;SDS011;37774;52.192;4.584;2022-09-09T08:11:08;19.95;;;5.40;;
51686;SDS011;37774;52.192;4.584;2022-09-09T08:13:36;8.77;;;5.28;;
51686;SDS011;37774;52.192;4.584;2022-09-09T08:16:05;14.85;;;5.53;;
51686;SDS011;37774;52.192;4.584;2022-09-09T08:18:37;13.30;;;5.00;;
51686;SDS011;37774;52.192;4.584;2022-09-09T08:21:05;16.65;;;4.80;;
51686;SDS011;37774;52.192;4.584;2022-09-09T08:23:33;15.52;;;5.32;;
51686;SDS011;37774;52.192;4.584;2022-09-09T08:26:06;11.60;;;4.53;;
51686;SDS011;37774;52.192;4.584;2022-09-09T08:28:34;16.98;;;4.93;;
51686;SDS011;37774;52.192;4.584;2022-09-09T08:31:07;9.82;;;4.65;;
51686;SDS011;37774;52.192;4.584;2022-09-09T08:33:38;11.07;;;5.38;;
51686;SDS011;37774;52.192;4.584;2022-09-09T08:36:06;9.82;;;4.40;;
51686;SDS011;37774;52.192;4.584;2022-09-09T08:38:36;8.73;;;4.65;;
51686;SDS011;37774;52.192;4.584;2022-09-09T08:41:24;13.95;;;4.70;;
51686;SDS011;37774;52.192;4.584;2022-09-09T08:44:14;11.25;;;4.65;;
51686;SDS011;37774;52.192;4.584;2022-09-09T08:46:51;17.73;;;5.05;;
51686;SDS011;37774;52.192;4.584;2022-09-09T08:49:37;9.90;;;4.22;;
51686;SDS011;37774;52.192;4.584;2022-09-09T08:52:19;7.00;;;4.57;;
51686;SDS011;37774;52.192;4.584;2022-09-09T08:54:49;8.85;;;4.35;;
51686;SDS011;37774;52.192;4.584;2022-09-09T08:57:20;18.23;;;4.68;;
51686;SDS011;37774;52.192;4.584;2022-09-09T08:59:51;14.70;;;5.65;;
51686;SDS011;37774;52.192;4.584;2022-09-09T09:02:21;13.55;;;4.88;;
51686;SDS011;37774;52.192;4.584;2022-09-09T09:04:56;16.25;;;4.53;;
51686;SDS011;37774;52.192;4.584;2022-09-09T09:07:35;13.70;;;4.55;;
51686;SDS011;37774;52.192;4.584;2022-09-09T09:10:15;14.05;;;5.07;;
51686;SDS011;37774;52.192;4.584;2022-09-09T09:12:56;5.47;;;3.90;;
51686;SDS011;37774;52.192;4.584;2022-09-09T09:15:25;16.65;;;4.57;;
51686;SDS011;37774;52.192;4.584;2022-09-09T09:17:56;14.23;;;4.28;;
51686;SDS011;37774;52.192;4.584;2022-09-09T09:20:25;15.18;;;4.63;;
51686;SDS011;37774;52.192;4.584;2022-09-09T09:22:56;13.00;;;4.25;;
51686;SDS011;37774;52.192;4.584;2022-09-09T09:25:31;10.93;;;4.18;;
51686;SDS011;37774;52.192;4.584;2022-09-09T09:28:03;12.48;;;3.97;;
51686;SDS011;37774;52.192;4.584;2022-09-09T09:30:36;9.38;;;4.10;;
51686;SDS011;37774;52.192;4.584;2022-09-09T09:33:08;8.13;;;3.72;;
51686;SDS011;37774;52.192;4.584;2022-09-09T09:35:43;9.75;;;4.18;;
51686;SDS011;37774;52.192;4.584;2022-09-09T09:38:12;10.50;;;4.40;;
51686;SDS011;37774;52.192;4.584;2022-09-09T09:40:50;15.32;;;4.50;;
51686;SDS011;37774;52.192;4.584;2022-09-09T09:43:24;7.97;;;4.38;;
51686;SDS011;37774;52.192;4.584;2022-09-09T09:45:52;12.90;;;4.45;;
51686;SDS011;37774;52.192;4.584;2022-09-09T09:48:19;12.85;;;4.65;;
51686;SDS011;37774;52.192;4.584;2022-09-09T09:50:46;7.80;;;3.78;;
51686;SDS011;37774;52.192;4.584;2022-09-09T09:53:17;11.13;;;5.10;;
51686;SDS011;37774;52.192;4.584;2022-09-09T09:55:48;12.85;;;4.93;;
51686;SDS011;37774;52.192;4.584;2022-09-09T09:58:20;11.20;;;4.65;;
51686;SDS011;37774;52.192;4.584;2022-09-09T10:00:49;11.70;;;4.32;;
51686;SDS011;37774;52.192;4.584;2022-09-09T10:03:23;11.90;;;4.65;;
51686;SDS011;37774;52.192;4.584;2022-09-09T10:05:52;13.33;;;4.70;;
51686;SDS011;37774;52.192;4.584;2022-09-09T10:08:19;10.88;;;4.50;;
51686;SDS011;37774;52.192;4.584;2022-09-09T10:10:52;9.30;;;3.65;;
51686;SDS011;37774;52.192;4.584;2022-09-09T10:13:30;7.88;;;3.72;;
51686;SDS011;37774;52.192;4.584;2022-09-09T10:16:12;13.25;;;3.58;;
51686;SDS011;37774;52.192;4.584;2022-09-09T10:18:56;11.93;;;4.30;;
51686;SDS011;37774;52.192;4.584;2022-09-09T10:24:17;8.93;;;4.55;;
51686;SDS011;37774;52.192;4.584;2022-09-09T10:26:58;5.05;;;3.08;;
51686;SDS011;37774;52.192;4.584;2022-09-09T10:29:38;10.00;;;3.42;;
51686;SDS011;37774;52.192;4.584;2022-09-09T10:32:33;9.35;;;3.60;;
51686;SDS011;37774;52.192;4.584;2022-09-09T10:35:04;8.43;;;3.08;;
51686;SDS011;37774;52.192;4.584;2022-09-09T10:37:47;9.48;;;2.97;;
51686;SDS011;37774;52.192;4.584;2022-09-09T10:40:33;6.45;;;2.75;;
51686;SDS011;37774;52.192;4.584;2022-09-09T10:43:07;14.70;;;3.88;;
51686;SDS011;37774;52.192;4.584;2022-09-09T10:45:46;11.57;;;3.10;;
51686;SDS011;37774;52.192;4.584;2022-09-09T10:51:20;12.60;;;3.38;;
51686;SDS011;37774;52.192;4.584;2022-09-09T10:53:53;4.85;;;2.88;;
51686;SDS011;37774;52.192;4.584;2022-09-09T10:56:31;6.43;;;3.42;;
51686;SDS011;37774;52.192;4.584;2022-09-09T10:59:00;16.95;;;3.25;;
51686;SDS011;37774;52.192;4.584;2022-09-09T11:01:32;12.30;;;3.85;;
51686;SDS011;37774;52.192;4.584;2022-09-09T11:04:05;12.23;;;3.92;;
51686;SDS011;37774;52.192;4.584;2022-09-09T11:06:41;17.70;;;3.60;;
51686;SDS011;37774;52.192;4.584;2022-09-09T11:09:14;15.52;;;5.03;;
51686;SDS011;37774;52.192;4.584;2022-09-09T11:11:45;11.15;;;2.92;;
51686;SDS011;37774;52.192;4.584;2022-09-09T11:14:19;8.43;;;2.65;;
51686;SDS011;37774;52.192;4.584;2022-09-09T11:16:53;12.82;;;2.75;;
51686;SDS011;37774;52.192;4.584;2022-09-09T11:19:26;5.28;;;2.53;;
51686;SDS011;37774;52.192;4.584;2022-09-09T11:21:59;6.57;;;2.67;;
51686;SDS011;37774;52.192;4.584;2022-09-09T11:24:31;6.53;;;2.78;;
51686;SDS011;37774;52.192;4.584;2022-09-09T11:27:08;7.15;;;2.80;;
51686;SDS011;37774;52.192;4.584;2022-09-09T11:29:55;5.32;;;1.92;;
51686;SDS011;37774;52.192;4.584;2022-09-09T11:32:44;4.18;;;2.05;;
51686;SDS011;37774;52.192;4.584;2022-09-09T11:35:24;2.80;;;2.03;;
51686;SDS011;37774;52.192;4.584;2022-09-09T11:38:10;8.57;;;1.85;;
51686;SDS011;37774;52.192;4.584;2022-09-09T11:40:46;12.73;;;2.43;;
51686;SDS011;37774;52.192;4.584;2022-09-09T11:43:23;7.15;;;2.15;;
51686;SDS011;37774;52.192;4.584;2022-09-09T11:45:54;6.30;;;2.00;;
51686;SDS011;37774;52.192;4.584;2022-09-09T11:48:26;4.63;;;2.28;;
51686;SDS011;37774;52.192;4.584;2022-09-09T11:50:59;6.30;;;2.33;;
51686;SDS011;37774;52.192;4.584;2022-09-09T11:53:30;6.88;;;2.67;;
51686;SDS011;37774;52.192;4.584;2022-09-09T11:58:54;9.10;;;2.20;;
51686;SDS011;37774;52.192;4.584;2022-09-09T12:01:30;3.85;;;2.40;;
51686;SDS011;37774;52.192;4.584;2022-09-09T12:04:06;6.60;;;1.98;;
51686;SDS011;37774;52.192;4.584;2022-09-09T12:06:53;6.95;;;2.50;;
51686;SDS011;37774;52.192;4.584;2022-09-09T12:09:23;10.63;;;2.80;;
51686;SDS011;37774;52.192;4.584;2022-09-09T12:12:04;12.48;;;2.97;;
51686;SDS011;37774;52.192;4.584;2022-09-09T12:14:37;6.43;;;2.40;;
51686;SDS011;37774;52.192;4.584;2022-09-09T12:17:10;9.38;;;2.90;;
51686;SDS011;37774;52.192;4.584;2022-09-09T12:19:46;10.52;;;2.80;;
51686;SDS011;37774;52.192;4.584;2022-09-09T12:22:16;8.65;;;2.58;;
51686;SDS011;37774;52.192;4.584;2022-09-09T12:24:53;9.75;;;2.15;;
51686;SDS011;37774;52.192;4.584;2022-09-09T12:27:31;9.70;;;1.95;;
51686;SDS011;37774;52.192;4.584;2022-09-09T12:30:03;7.15;;;2.17;;
51686;SDS011;37774;52.192;4.584;2022-09-09T12:32:35;8.93;;;2.78;;
51686;SDS011;37774;52.192;4.584;2022-09-09T12:35:03;13.05;;;2.97;;
51686;SDS011;37774;52.192;4.584;2022-09-09T12:37:38;6.13;;;2.92;;
51686;SDS011;37774;52.192;4.584;2022-09-09T12:40:18;6.40;;;2.88;;
51686;SDS011;37774;52.192;4.584;2022-09-09T12:42:47;6.00;;;2.70;;
51686;SDS011;37774;52.192;4.584;2022-09-09T12:45:15;11.20;;;3.00;;
51686;SDS011;37774;52.192;4.584;2022-09-09T12:47:44;6.38;;;2.88;;
51686;SDS011;37774;52.192;4.584;2022-09-09T12:50:17;6.30;;;3.03;;
51686;SDS011;37774;52.192;4.584;2022-09-09T12:52:48;9.73;;;2.60;;
51686;SDS011;37774;52.192;4.584;2022-09-09T12:55:18;10.50;;;2.65;;
51686;SDS011;37774;52.192;4.584;2022-09-09T12:57:46;4.85;;;2.53;;
51686;SDS011;37774;52.192;4.584;2022-09-09T13:00:17;6.20;;;2.13;;
51686;SDS011;37774;52.192;4.584;2022-09-09T13:02:49;7.03;;;2.20;;
51686;SDS011;37774;52.192;4.584;2022-09-09T13:05:18;5.78;;;1.95;;
51686;SDS011;37774;52.192;4.584;2022-09-09T13:07:49;4.03;;;2.05;;
51686;SDS011;37774;52.192;4.584;2022-09-09T13:10:20;5.97;;;2.50;;
51686;SDS011;37774;52.192;4.584;2022-09-09T13:12:52;7.97;;;1.92;;
51686;SDS011;37774;52.192;4.584;2022-09-09T13:15:20;9.13;;;2.22;;
51686;SDS011;37774;52.192;4.584;2022-09-09T13:17:50;3.78;;;2.00;;
51686;SDS011;37774;52.192;4.584;2022-09-09T13:20:22;3.53;;;1.92;;
51686;SDS011;37774;52.192;4.584;2022-09-09T13:22:52;6.57;;;1.95;;
51686;SDS011;37774;52.192;4.584;2022-09-09T13:25:22;8.77;;;2.03;;
51686;SDS011;37774;52.192;4.584;2022-09-09T13:27:52;4.00;;;1.88;;
51686;SDS011;37774;52.192;4.584;2022-09-09T13:30:21;6.60;;;2.17;;
51686;SDS011;37774;52.192;4.584;2022-09-09T13:33:03;5.25;;;1.88;;
51686;SDS011;37774;52.192;4.584;2022-09-09T13:35:49;4.70;;;1.40;;
51686;SDS011;37774;52.192;4.584;2022-09-09T13:38:20;5.13;;;2.20;;
51686;SDS011;37774;52.192;4.584;2022-09-09T13:40:54;6.93;;;1.67;;
51686;SDS011;37774;52.192;4.584;2022-09-09T13:43:24;4.68;;;1.48;;
51686;SDS011;37774;52.192;4.584;2022-09-09T13:45:53;10.95;;;2.25;;
51686;SDS011;37774;52.192;4.584;2022-09-09T13:48:23;7.65;;;1.83;;
51686;SDS011;37774;52.192;4.584;2022-09-09T13:50:57;5.45;;;1.38;;
51686;SDS011;37774;52.192;4.584;2022-09-09T13:53:27;4.18;;;1.63;;
51686;SDS011;37774;52.192;4.584;2022-09-09T13:55:55;3.83;;;1.45;;
51686;SDS011;37774;52.192;4.584;2022-09-09T13:58:23;3.42;;;1.30;;
51686;SDS011;37774;52.192;4.584;2022-09-09T14:00:51;3.58;;;1.77;;
51686;SDS011;37774;52.192;4.584;2022-09-09T14:03:18;4.32;;;1.48;;
51686;SDS011;37774;52.192;4.584;2022-09-09T14:05:46;2.83;;;1.55;;
51686;SDS011;37774;52.192;4.584;2022-09-09T14:08:23;7.80;;;1.63;;
51686;SDS011;37774;52.192;4.584;2022-09-09T14:10:54;2.75;;;2.03;;
51686;SDS011;37774;52.192;4.584;2022-09-09T14:13:24;2.13;;;1.60;;
51686;SDS011;37774;52.192;4.584;2022-09-09T14:15:51;2.67;;;1.23;;
51686;SDS011;37774;52.192;4.584;2022-09-09T14:18:18;4.28;;;0.98;;
51686;SDS011;37774;52.192;4.584;2022-09-09T14:20:47;2.00;;;0.73;;
51686;SDS011;37774;52.192;4.584;2022-09-09T14:23:15;2.45;;;0.50;;
51686;SDS011;37774;52.192;4.584;2022-09-09T14:25:42;2.35;;;0.40;;
51686;SDS011;37774;52.192;4.584;2022-09-09T14:28:12;0.40;;;0.25;;
51686;SDS011;37774;52.192;4.584;2022-09-09T14:30:40;3.28;;;0.50;;
51686;SDS011;37774;52.192;4.584;2022-09-09T14:33:08;2.17;;;0.52;;
51686;SDS011;37774;52.192;4.584;2022-09-09T14:35:37;3.88;;;0.52;;
51686;SDS011;37774;52.192;4.584;2022-09-09T14:38:05;4.47;;;0.77;;
51686;SDS011;37774;52.192;4.584;2022-09-09T14:40:33;0.88;;;0.50;;
51686;SDS011;37774;52.192;4.584;2022-09-09T14:43:00;3.00;;;0.60;;
51686;SDS011;37774;52.192;4.584;2022-09-09T14:45:29;1.65;;;0.57;;
51686;SDS011;37774;52.192;4.584;2022-09-09T14:47:56;6.10;;;1.10;;
51686;SDS011;37774;52.192;4.584;2022-09-09T14:50:23;5.43;;;1.13;;
51686;SDS011;37774;52.192;4.584;2022-09-09T14:52:50;2.05;;;0.63;;
51686;SDS011;37774;52.192;4.584;2022-09-09T14:55:17;3.60;;;0.90;;
51686;SDS011;37774;52.192;4.584;2022-09-09T14:57:44;7.88;;;1.23;;
51686;SDS011;37774;52.192;4.584;2022-09-09T15:00:12;2.58;;;0.63;;
51686;SDS011;37774;52.192;4.584;2022-09-09T15:02:40;6.38;;;1.05;;
51686;SDS011;37774;52.192;4.584;2022-09-09T15:05:07;3.25;;;0.85;;
51686;SDS011;37774;52.192;4.584;2022-09-09T15:07:36;3.55;;;0.90;;
51686;SDS011;37774;52.192;4.584;2022-09-09T15:10:03;6.63;;;1.45;;
51686;SDS011;37774;52.192;4.584;2022-09-09T15:12:31;9.45;;;1.35;;